Pedro R. Fernandez, Argentina
Current Conditions -  °F | °C
As of 8:00 PM on Saturday 25 Oct 2014 (Local Time) from SARC Reporting Station
Clear Clear  
Wind Chill: 82°   Ceiling: Unl
Heat Index: 83°   Visibility: 5mi
Dew Point: 63°   Wind: 7mph
Humidity: 51%   Direction: 140°SE
Pressure: 29.77"   Gusts: NA
Location:  28.75°S, 58.65°W
Report Text: SARC 252300Z 14006KT 8000 NSC 28/17 Q1008
Loading
Personal Weather Stations






























Interactive Weather Map
Tropical Storm Tracking
New forecast layout! Learn more

10-Day Weather Forecast

Advertisements
Track Severe Weather on mobile